Time;durP1;ratioP1;P1;durP2;ratioP2;P2;SDS_P1;SDS_P2;PMS_P1;PMS_P2;Temp;Humidity;BMP_temperature;BMP_pressure;BME280_temperature;BME280_humidity;BME280_pressure;Samples;Min_cycle;Max_cycle;Signal;HPM_P1;HPM_P2
2021/06/04 00:02:00;;;;;;;8.25;7.10;;;19.50;49.10;;;;;;5080635;28;20215;-80
2021/06/04 00:04:29;;;;;;;7.18;6.43;;;19.50;49.10;;;;;;5063205;28;20184;-80
2021/06/04 00:06:57;;;;;;;7.68;6.53;;;19.40;49.00;;;;;;5082184;28;20200;-80
2021/06/04 00:09:26;;;;;;;7.47;6.60;;;19.40;49.10;;;;;;5103716;28;20165;-80
2021/06/04 00:11:57;;;;;;;7.18;6.47;;;19.40;49.00;;;;;;5083872;28;20191;-80
2021/06/04 00:14:30;;;;;;;7.57;6.80;;;19.40;49.10;;;;;;5084127;28;20272;-80
2021/06/04 00:17:05;;;;;;;8.02;6.35;;;19.40;49.10;;;;;;5084480;28;20600;-80
2021/06/04 00:19:34;;;;;;;6.95;6.22;;;19.40;49.10;;;;;;5084115;28;20179;-80
2021/06/04 00:22:05;;;;;;;9.07;7.10;;;19.40;49.10;;;;;;5083976;28;20635;-80
2021/06/04 00:24:33;;;;;;;7.35;6.65;;;19.40;49.80;;;;;;5067427;28;20177;-80
2021/06/04 00:27:01;;;;;;;8.65;6.88;;;19.40;49.10;;;;;;5050389;28;20184;-80
2021/06/04 00:29:31;;;;;;;7.55;6.78;;;19.40;49.10;;;;;;5084285;28;20566;-80
2021/06/04 00:31:57;;;;;;;7.68;6.88;;;19.40;49.10;;;;;;5084029;28;20549;-80
2021/06/04 00:34:24;;;;;;;7.55;6.72;;;19.40;49.10;;;;;;5067393;28;20166;-80
2021/06/04 00:36:54;;;;;;;7.00;6.30;;;19.40;49.20;;;;;;5083997;28;20176;-81
2021/06/04 00:39:26;;;;;;;7.97;7.10;;;19.40;49.20;;;;;;5083150;28;20257;-80
2021/06/04 00:42:11;;;;;;;7.05;6.35;;;19.40;49.20;;;;;;5084447;28;20185;-80
2021/06/04 00:44:39;;;;;;;7.68;6.88;;;19.40;49.10;;;;;;5054286;28;20181;-80
2021/06/04 00:47:06;;;;;;;8.38;7.13;;;19.30;49.10;;;;;;5083323;28;20215;-80
2021/06/04 00:49:32;;;;;;;8.07;6.95;;;19.40;49.20;;;;;;5102107;28;20232;-80
2021/06/04 00:52:13;;;;;;;7.78;6.97;;;19.40;49.20;;;;;;5102566;28;20201;-80
2021/06/04 00:54:39;;;;;;;8.00;7.20;;;19.40;49.20;;;;;;5101311;28;20588;-80
2021/06/04 00:57:05;;;;;;;8.43;7.53;;;19.40;49.20;;;;;;5084298;28;20164;-80
2021/06/04 00:59:36;;;;;;;7.15;6.45;;;19.40;49.20;;;;;;5101786;28;20164;-80
2021/06/04 01:02:03;;;;;;;7.45;6.65;;;19.30;49.20;;;;;;5101737;28;20161;-80
2021/06/04 01:04:29;;;;;;;7.70;6.90;;;19.40;49.30;;;;;;5101457;28;20153;-80
2021/06/04 01:07:08;;;;;;;8.35;7.25;;;19.30;49.20;;;;;;5101201;28;20210;-80
2021/06/04 01:09:54;;;;;;;7.90;7.00;;;19.40;49.30;;;;;;5101856;28;20654;-80
2021/06/04 01:12:38;;;;;;;8.00;6.80;;;19.30;49.20;;;;;;5086157;28;20145;-80
2021/06/04 01:15:43;;;;;;;8.65;7.53;;;19.30;49.30;;;;;;5101477;28;20228;-80
2021/06/04 01:18:16;;;;;;;7.90;6.93;;;19.30;49.30;;;;;;5100014;28;20157;-80
2021/06/04 01:20:47;;;;;;;8.25;7.22;;;19.30;49.30;;;;;;5100320;28;20180;-80
2021/06/04 01:23:43;;;;;;;9.02;7.50;;;19.30;49.30;;;;;;5100247;28;20621;-80
2021/06/04 01:26:25;;;;;;;7.82;7.03;;;19.30;49.30;;;;;;5102094;28;20210;-80
2021/06/04 01:29:01;;;;;;;7.85;6.93;;;19.30;49.30;;;;;;5100973;28;20161;-80
2021/06/04 01:31:37;;;;;;;7.97;7.18;;;19.30;49.30;;;;;;5067353;28;20208;-80
2021/06/04 01:34:06;;;;;;;8.13;7.32;;;19.30;49.40;;;;;;5100637;28;20555;-80
2021/06/04 01:36:37;;;;;;;8.10;7.30;;;19.30;49.40;;;;;;5102345;28;20526;-80
2021/06/04 01:39:07;;;;;;;9.63;7.10;;;19.30;49.40;;;;;;5083729;28;20221;-80
2021/06/04 01:41:33;;;;;;;8.35;7.45;;;19.30;49.40;;;;;;5100461;28;20157;-80
2021/06/04 01:44:02;;;;;;;7.63;6.93;;;19.30;49.40;;;;;;5100592;28;20638;-80
2021/06/04 01:46:31;;;;;;;8.88;7.57;;;19.30;49.40;;;;;;5099746;28;20156;-80
2021/06/04 01:48:58;;;;;;;8.23;7.43;;;19.30;49.40;;;;;;5099463;28;20156;-80
2021/06/04 01:51:30;;;;;;;8.27;7.28;;;19.30;49.40;;;;;;5100739;28;20197;-80
2021/06/04 01:54:00;;;;;;;8.50;7.60;;;19.30;49.50;;;;;;5100529;28;20268;-79
2021/06/04 01:56:30;;;;;;;8.40;7.57;;;19.30;49.50;;;;;;5101161;28;20153;-79
2021/06/04 01:58:59;;;;;;;9.40;7.85;;;19.30;49.50;;;;;;5101199;28;20157;-79
2021/06/04 02:01:31;;;;;;;7.82;7.03;;;19.20;49.40;;;;;;5083497;28;20161;-79
2021/06/04 02:03:58;;;;;;;8.20;7.40;;;19.20;49.40;;;;;;5099513;28;20179;-80
2021/06/04 02:06:25;;;;;;;7.90;7.10;;;19.20;49.40;;;;;;5101128;28;20165;-79
2021/06/04 02:08:53;;;;;;;8.85;7.40;;;19.30;49.50;;;;;;5083434;28;20153;-80
2021/06/04 02:11:25;;;;;;;8.15;7.35;;;19.20;49.40;;;;;;5100217;28;20196;-80
2021/06/04 02:13:50;;;;;;;8.50;7.20;;;19.30;50.10;;;;;;5100616;28;20185;-80
2021/06/04 02:16:45;;;;;;;8.43;7.32;;;19.30;49.50;;;;;;5098842;28;20615;-79
2021/06/04 02:19:29;;;;;;;8.55;7.60;;;19.30;49.60;;;;;;5099394;28;20176;-79
2021/06/04 02:22:17;;;;;;;8.75;7.85;;;19.30;49.50;;;;;;5099121;28;20160;-80
2021/06/04 02:24:52;;;;;;;8.68;7.60;;;19.30;49.60;;;;;;5084868;28;20672;-79
2021/06/04 02:27:23;;;;;;;7.97;7.18;;;19.20;49.50;;;;;;5100496;28;20694;-80
2021/06/04 02:29:56;;;;;;;8.50;7.60;;;19.20;49.50;;;;;;5099569;28;20215;-80
2021/06/04 02:32:28;;;;;;;9.05;7.50;;;19.30;49.60;;;;;;5100600;28;20152;-80
2021/06/04 02:35:04;;;;;;;7.88;7.07;;;19.30;49.60;;;;;;5098548;28;20761;-79
2021/06/04 02:37:36;;;;;;;10.02;7.82;;;19.30;49.60;;;;;;5099689;28;20180;-79
2021/06/04 02:40:18;;;;;;;7.90;7.00;;;19.20;49.60;;;;;;5100055;28;20289;-80
2021/06/04 02:42:51;;;;;;;8.50;7.60;;;19.20;49.60;;;;;;5100149;28;20172;-80
2021/06/04 02:45:25;;;;;;;8.45;7.55;;;19.20;49.60;;;;;;5065338;28;20188;-80
2021/06/04 02:47:55;;;;;;;7.93;7.10;;;19.20;49.60;;;;;;5082206;28;20180;-80
2021/06/04 02:50:44;;;;;;;7.18;6.47;;;19.20;49.60;;;;;;5064273;28;20228;-79
2021/06/04 02:53:28;;;;;;;8.50;7.32;;;19.20;50.30;;;;;;5099410;28;20217;-79
2021/06/04 02:56:13;;;;;;;8.57;7.78;;;19.20;49.60;;;;;;5098704;28;20152;-79
2021/06/04 02:58:40;;;;;;;8.40;7.50;;;19.30;49.60;;;;;;5099589;28;20216;-80
2021/06/04 03:01:06;;;;;;;8.10;7.30;;;19.20;49.60;;;;;;5099960;28;20603;-80
2021/06/04 03:03:32;;;;;;;8.93;7.68;;;19.20;49.60;;;;;;5098561;28;20157;-80
2021/06/04 03:06:02;;;;;;;8.40;7.50;;;19.20;49.60;;;;;;5098055;28;20634;-80
2021/06/04 03:08:33;;;;;;;8.52;7.63;;;19.20;49.60;;;;;;5080417;28;20636;-81
2021/06/04 03:10:58;;;;;;;7.85;7.05;;;19.20;49.60;;;;;;5081002;28;20220;-80
2021/06/04 03:13:28;;;;;;;9.07;8.18;;;19.20;49.60;;;;;;5099395;28;20181;-80
2021/06/04 03:15:59;;;;;;;8.25;7.35;;;19.20;49.60;;;;;;5098390;28;20194;-81
2021/06/04 03:18:29;;;;;;;8.82;7.60;;;19.20;50.30;;;;;;5098806;28;20218;-80
2021/06/04 03:20:56;;;;;;;8.75;7.82;;;19.20;49.60;;;;;;5099082;28;20157;-80
2021/06/04 03:23:24;;;;;;;8.05;7.07;;;19.20;49.60;;;;;;5063281;28;20176;-81
2021/06/04 03:25:53;;;;;;;8.10;7.18;;;19.20;49.60;;;;;;5098093;28;20152;-81
2021/06/04 03:28:21;;;;;;;8.40;7.38;;;19.20;49.70;;;;;;5097005;28;20302;-80
2021/06/04 03:30:49;;;;;;;8.27;7.38;;;19.20;49.60;;;;;;5098874;28;20181;-80
2021/06/04 03:33:18;;;;;;;8.50;7.57;;;19.20;49.70;;;;;;5099209;28;20157;-80
2021/06/04 03:35:45;;;;;;;8.00;7.20;;;19.20;49.70;;;;;;5098824;28;20688;-80
2021/06/04 03:38:10;;;;;;;8.40;7.50;;;19.20;49.70;;;;;;5098522;28;20600;-80
2021/06/04 03:40:37;;;;;;;8.65;7.47;;;19.20;49.70;;;;;;5063559;28;20157;-80
2021/06/04 03:43:05;;;;;;;7.93;7.13;;;19.20;49.70;;;;;;5097602;28;20184;-80
2021/06/04 03:45:36;;;;;;;9.02;7.45;;;19.20;49.70;;;;;;5097374;28;20148;-80
2021/06/04 03:48:03;;;;;;;7.93;7.13;;;19.20;49.70;;;;;;5080646;28;20227;-80
2021/06/04 03:50:32;;;;;;;8.35;7.07;;;19.20;49.70;;;;;;5098446;28;20235;-80
2021/06/04 03:52:58;;;;;;;7.90;7.10;;;19.20;49.70;;;;;;5063403;28;20238;-81
2021/06/04 03:55:26;;;;;;;9.55;7.88;;;19.20;49.70;;;;;;5098624;28;20176;-80
2021/06/04 03:57:54;;;;;;;7.80;7.00;;;19.10;49.70;;;;;;5080051;28;20173;-80
2021/06/04 04:00:35;;;;;;;8.77;7.50;;;19.20;49.70;;;;;;5046819;28;20196;-80
2021/06/04 04:03:00;;;;;;;9.05;7.72;;;19.20;49.90;;;;;;5079930;28;20181;-80
2021/06/04 04:05:26;;;;;;;8.73;7.80;;;19.20;49.70;;;;;;5097519;28;20159;-81
2021/06/04 04:07:52;;;;;;;7.88;7.07;;;19.20;49.60;;;;;;5080280;28;20243;-80
2021/06/04 04:10:21;;;;;;;8.32;7.45;;;19.30;49.70;;;;;;5098553;28;20526;-80
2021/06/04 04:12:49;;;;;;;8.23;7.15;;;19.30;49.60;;;;;;5097501;28;20168;-80
2021/06/04 04:15:17;;;;;;;8.07;7.28;;;19.30;49.60;;;;;;5098630;28;20243;-80
2021/06/04 04:17:45;;;;;;;8.20;6.85;;;19.30;49.60;;;;;;5081203;28;20164;-80
2021/06/04 04:20:13;;;;;;;7.82;7.03;;;19.30;49.70;;;;;;5098862;28;20194;-80
2021/06/04 04:22:39;;;;;;;8.15;7.35;;;19.30;49.60;;;;;;5098420;28;20149;-80
2021/06/04 04:25:06;;;;;;;7.93;6.93;;;19.30;49.50;;;;;;5098575;28;20191;-80
2021/06/04 04:27:32;;;;;;;7.90;7.10;;;19.40;49.50;;;;;;5098821;28;20607;-80
2021/06/04 04:29:58;;;;;;;8.07;7.03;;;19.40;49.40;;;;;;5098810;28;20203;-80
2021/06/04 04:32:26;;;;;;;8.30;7.28;;;19.40;49.40;;;;;;5098448;28;20165;-80
2021/06/04 04:34:55;;;;;;;8.23;6.93;;;19.40;49.30;;;;;;5079340;28;20207;-80
2021/06/04 04:37:23;;;;;;;7.85;6.90;;;19.40;49.30;;;;;;5080210;28;20172;-80
2021/06/04 04:39:51;;;;;;;7.95;7.13;;;19.40;49.30;;;;;;5061949;28;20188;-82
2021/06/04 04:42:22;;;;;;;8.20;6.70;;;19.40;49.30;;;;;;5062854;28;20551;-80
2021/06/04 04:44:50;;;;;;;7.57;6.60;;;19.40;49.40;;;;;;5078865;28;20187;-80
2021/06/04 04:47:19;;;;;;;7.47;6.53;;;19.40;49.30;;;;;;5062520;28;20529;-80
2021/06/04 04:49:45;;;;;;;8.20;6.82;;;19.40;49.30;;;;;;5078225;28;20228;-81
2021/06/04 04:52:11;;;;;;;7.68;6.32;;;19.50;49.30;;;;;;5079137;28;20248;-80
2021/06/04 04:54:40;;;;;;;7.70;6.85;;;19.50;49.30;;;;;;5116484;28;20157;-80
2021/06/04 04:57:07;;;;;;;7.43;6.55;;;19.50;49.30;;;;;;5118028;27;20228;-81
2021/06/04 04:59:35;;;;;;;7.80;6.22;;;19.50;49.30;;;;;;5101297;28;20202;-80
2021/06/04 05:02:01;;;;;;;7.53;6.15;;;19.50;49.40;;;;;;5101941;28;20214;-80
2021/06/04 05:04:27;;;;;;;7.45;6.70;;;19.60;49.40;;;;;;5100887;28;20152;-80
2021/06/04 05:06:53;;;;;;;7.38;6.45;;;19.50;49.30;;;;;;5101600;28;20357;-80
2021/06/04 05:09:19;;;;;;;8.35;7.07;;;19.50;49.40;;;;;;5101630;28;20149;-80
2021/06/04 05:11:49;;;;;;;7.38;6.60;;;19.50;49.30;;;;;;5100857;28;20153;-80
2021/06/04 05:14:16;;;;;;;6.97;6.28;;;19.50;49.30;;;;;;5065997;28;20188;-80
2021/06/04 05:16:46;;;;;;;6.53;5.80;;;19.50;49.20;;;;;;5099431;28;20586;-80
2021/06/04 05:19:13;;;;;;;7.00;6.18;;;19.60;49.30;;;;;;5066339;28;20177;-80
2021/06/04 05:21:39;;;;;;;7.32;6.30;;;19.60;49.30;;;;;;5099940;28;20642;-80
2021/06/04 05:24:05;;;;;;;6.57;5.88;;;19.60;49.30;;;;;;5101366;28;20160;-80
2021/06/04 05:26:31;;;;;;;7.75;6.20;;;19.60;49.30;;;;;;5100661;28;20614;-80
2021/06/04 05:29:01;;;;;;;6.82;6.00;;;19.60;49.40;;;;;;5100077;28;20149;-80
2021/06/04 05:31:28;;;;;;;6.72;5.97;;;19.60;49.20;;;;;;5082683;28;20216;-80
2021/06/04 05:33:55;;;;;;;6.03;5.40;;;19.60;49.30;;;;;;5099544;28;20154;-81
2021/06/04 05:36:29;;;;;;;6.88;6.18;;;19.60;49.40;;;;;;5099746;28;20167;-80
2021/06/04 05:38:55;;;;;;;6.93;5.95;;;19.60;49.40;;;;;;5100710;28;20168;-80
2021/06/04 05:41:21;;;;;;;6.90;6.15;;;19.60;49.40;;;;;;5101534;28;20182;-81
2021/06/04 05:43:48;;;;;;;7.47;6.53;;;19.60;49.40;;;;;;5100861;28;20160;-80
2021/06/04 05:46:15;;;;;;;6.07;5.47;;;19.60;49.40;;;;;;5100285;28;20205;-81
2021/06/04 05:48:41;;;;;;;7.43;6.55;;;19.60;49.30;;;;;;5102567;28;20618;-80
2021/06/04 05:51:10;;;;;;;6.25;5.65;;;19.60;49.40;;;;;;5101822;28;20299;-80
2021/06/04 05:53:36;;;;;;;6.90;5.93;;;19.60;49.30;;;;;;5083639;28;20168;-81
2021/06/04 05:56:03;;;;;;;6.97;6.00;;;19.60;49.30;;;;;;5103471;28;20169;-80
2021/06/04 05:58:31;;;;;;;6.28;5.68;;;19.60;49.30;;;;;;5100342;28;20153;-80
2021/06/04 06:00:59;;;;;;;7.03;6.18;;;19.70;49.30;;;;;;5083429;28;20181;-81
2021/06/04 06:03:32;;;;;;;6.25;5.65;;;19.60;49.30;;;;;;5049301;28;20666;-80
2021/06/04 06:05:57;;;;;;;7.07;6.03;;;19.70;49.20;;;;;;5082948;28;20603;-80
2021/06/04 06:08:23;;;;;;;6.40;5.80;;;19.70;49.30;;;;;;5101925;28;20152;-81
2021/06/04 06:10:50;;;;;;;6.50;5.70;;;19.70;49.30;;;;;;5102159;28;20255;-80
2021/06/04 06:13:20;;;;;;;7.78;6.28;;;19.70;49.60;;;;;;5083913;28;20168;-81
2021/06/04 06:15:47;;;;;;;6.93;6.03;;;19.80;49.50;;;;;;5084047;28;20184;-80
2021/06/04 06:18:14;;;;;;;7.90;5.90;;;19.70;49.50;;;;;;5102324;28;20518;-80
2021/06/04 06:20:45;;;;;;;6.53;5.82;;;19.70;49.60;;;;;;5102857;28;20184;-81
2021/06/04 06:23:16;;;;;;;7.60;6.05;;;19.70;49.30;;;;;;5083030;28;20237;-80
2021/06/04 06:25:48;;;;;;;6.50;5.80;;;19.70;49.40;;;;;;5062695;28;20227;-80
2021/06/04 06:28:20;;;;;;;7.95;5.90;;;19.70;49.30;;;;;;5063026;28;20241;-80
2021/06/04 06:30:49;;;;;;;6.93;5.80;;;19.70;49.40;;;;;;5030008;28;20217;-80
2021/06/04 06:33:15;;;;;;;6.63;5.45;;;19.80;49.30;;;;;;5048473;28;20176;-82
2021/06/04 06:35:47;;;;;;;7.05;5.95;;;19.70;49.40;;;;;;5100954;28;20168;-82
2021/06/04 06:38:13;;;;;;;6.90;6.10;;;19.70;50.00;;;;;;5082704;28;20321;-82
2021/06/04 06:40:44;;;;;;;6.93;6.03;;;19.80;49.30;;;;;;5099525;28;20184;-82
2021/06/04 06:43:13;;;;;;;6.45;5.68;;;19.80;49.20;;;;;;5082319;28;20184;-82
2021/06/04 06:45:42;;;;;;;6.50;5.80;;;19.80;49.10;;;;;;5098779;28;20513;-81
2021/06/04 06:48:12;;;;;;;6.03;5.43;;;19.80;49.10;;;;;;5080589;28;20663;-81
2021/06/04 06:50:43;;;;;;;6.63;5.72;;;19.80;49.10;;;;;;5063734;28;20311;-81
2021/06/04 06:53:12;;;;;;;6.10;5.50;;;19.80;49.10;;;;;;5080100;28;20543;-82
2021/06/04 06:55:43;;;;;;;7.53;5.95;;;19.80;49.10;;;;;;5065084;28;20188;-82
2021/06/04 06:58:16;;;;;;;6.07;5.40;;;19.80;49.10;;;;;;5099489;28;20543;-82
2021/06/04 07:00:47;;;;;;;7.05;6.30;;;19.90;49.00;;;;;;5083005;28;20237;-82
2021/06/04 07:03:14;;;;;;;6.00;5.40;;;19.90;49.00;;;;;;5065291;28;20523;-82
2021/06/04 07:05:42;;;;;;;6.60;5.90;;;19.80;49.00;;;;;;5082619;28;20683;-82
2021/06/04 07:08:13;;;;;;;6.10;5.50;;;19.80;49.00;;;;;;5082416;28;20639;-81
2021/06/04 07:10:39;;;;;;;7.00;5.88;;;19.90;48.90;;;;;;5070037;28;20225;-82
2021/06/04 07:13:07;;;;;;;6.70;6.00;;;19.90;48.90;;;;;;5093148;28;20239;-82
2021/06/04 07:15:34;;;;;;;6.88;5.72;;;19.90;49.00;;;;;;5118927;28;20210;-82
2021/06/04 07:18:05;;;;;;;6.75;5.90;;;19.80;49.00;;;;;;5123872;28;20219;-82
2021/06/04 07:20:32;;;;;;;7.68;5.90;;;19.80;49.20;;;;;;5086772;28;20215;-83
2021/06/04 07:22:58;;;;;;;6.05;5.45;;;19.70;49.10;;;;;;5108515;28;20208;-82
2021/06/04 07:25:34;;;;;;;6.10;5.50;;;19.80;49.10;;;;;;5085321;28;20153;-82
2021/06/04 07:28:04;;;;;;;5.78;5.18;;;19.90;49.00;;;;;;5084167;28;20184;-82
2021/06/04 07:30:34;;;;;;;6.03;5.18;;;19.90;49.00;;;;;;5067886;28;20226;-82
2021/06/04 07:33:10;;;;;;;6.30;5.70;;;19.90;48.90;;;;;;5101927;28;20221;-82
2021/06/04 07:35:36;;;;;;;7.35;5.68;;;19.90;48.90;;;;;;5066719;28;20188;-82
2021/06/04 07:38:06;;;;;;;5.70;5.10;;;19.90;48.90;;;;;;5096233;28;20156;-82
2021/06/04 07:40:32;;;;;;;5.80;5.20;;;19.80;48.90;;;;;;5060190;28;20184;-81
2021/06/04 07:43:00;;;;;;;6.13;5.53;;;19.90;49.00;;;;;;5077999;28;20528;-82
2021/06/04 07:45:28;;;;;;;6.60;5.63;;;19.90;49.70;;;;;;5094087;28;20287;-81
2021/06/04 07:47:53;;;;;;;6.40;5.43;;;19.80;49.00;;;;;;5094267;28;20294;-81
2021/06/04 07:50:20;;;;;;;6.20;5.60;;;19.90;49.10;;;;;;5095486;28;20261;-81
2021/06/04 07:52:46;;;;;;;5.80;5.20;;;19.90;49.10;;;;;;5094700;28;20567;-81
2021/06/04 07:55:13;;;;;;;6.68;5.97;;;19.80;49.00;;;;;;5095006;28;20184;-81
2021/06/04 07:57:39;;;;;;;7.93;5.85;;;19.80;49.00;;;;;;5094864;28;20153;-81
2021/06/04 08:00:06;;;;;;;6.18;5.57;;;19.90;48.90;;;;;;5076479;28;20192;-81
2021/06/04 08:02:33;;;;;;;5.20;4.70;;;19.90;48.90;;;;;;5094926;28;20206;-82
2021/06/04 08:04:59;;;;;;;6.05;5.45;;;19.90;48.90;;;;;;5094728;28;20156;-81
2021/06/04 08:07:25;;;;;;;5.97;5.38;;;19.90;48.90;;;;;;5077203;28;20165;-81
2021/06/04 08:09:51;;;;;;;5.90;5.30;;;19.90;48.90;;;;;;5093429;28;20214;-82
2021/06/04 08:12:17;;;;;;;6.38;5.53;;;19.90;48.90;;;;;;5094778;28;20153;-81
2021/06/04 08:14:43;;;;;;;6.07;5.47;;;19.90;48.90;;;;;;5095300;28;20160;-82
2021/06/04 08:17:09;;;;;;;6.45;5.75;;;19.90;48.90;;;;;;5095954;28;20231;-82
2021/06/04 08:19:36;;;;;;;6.20;5.15;;;19.90;49.00;;;;;;5095385;28;20190;-82
2021/06/04 08:22:05;;;;;;;7.07;5.70;;;19.90;49.00;;;;;;5078846;28;20169;-83
2021/06/04 08:24:32;;;;;;;6.80;5.60;;;19.90;49.00;;;;;;5096047;28;20153;-82
2021/06/04 08:26:59;;;;;;;5.60;5.07;;;19.90;48.90;;;;;;5096264;28;20541;-82
2021/06/04 08:29:27;;;;;;;6.50;5.72;;;19.90;48.90;;;;;;5099169;28;20508;-81
2021/06/04 08:31:53;;;;;;;6.20;5.60;;;19.80;48.90;;;;;;5096136;28;20156;-81
2021/06/04 08:34:19;;;;;;;6.03;5.43;;;19.90;48.90;;;;;;5095787;28;20176;-81
2021/06/04 08:36:45;;;;;;;6.05;5.45;;;19.90;48.90;;;;;;5097146;28;20223;-81
2021/06/04 08:39:17;;;;;;;6.07;5.47;;;20.00;48.90;;;;;;5095663;28;20153;-81
2021/06/04 08:41:56;;;;;;;5.70;5.10;;;19.90;48.90;;;;;;5096825;28;20157;-81
2021/06/04 08:44:53;;;;;;;6.25;5.35;;;19.90;48.90;;;;;;5097061;28;20161;-81
2021/06/04 08:47:26;;;;;;;6.10;5.38;;;20.00;48.80;;;;;;5095657;28;20264;-80
2021/06/04 08:50:24;;;;;;;6.28;5.65;;;20.00;48.80;;;;;;5096418;28;20271;-81
2021/06/04 08:52:59;;;;;;;5.93;5.32;;;20.00;48.80;;;;;;5096204;28;20145;-80
2021/06/04 08:55:49;;;;;;;6.30;5.35;;;19.90;48.80;;;;;;5096308;28;20145;-81
2021/06/04 08:58:45;;;;;;;7.57;5.32;;;20.00;49.00;;;;;;5129894;27;20184;-80
2021/06/04 09:01:20;;;;;;;5.88;5.20;;;19.90;49.00;;;;;;5113879;27;20180;-81
2021/06/04 09:03:52;;;;;;;8.02;5.90;;;20.00;48.90;;;;;;5113241;27;20604;-80
2021/06/04 09:06:27;;;;;;;6.13;5.40;;;20.00;48.80;;;;;;5095978;28;20173;-81
2021/06/04 09:08:52;;;;;;;6.00;5.18;;;20.00;48.90;;;;;;5096814;28;20155;-80
2021/06/04 09:11:28;;;;;;;5.72;5.13;;;20.00;48.90;;;;;;5094371;28;20200;-81
2021/06/04 09:13:55;;;;;;;5.85;5.25;;;20.00;49.00;;;;;;5094765;28;20160;-80
2021/06/04 09:16:30;;;;;;;5.45;4.70;;;19.90;48.90;;;;;;5095151;28;20524;-80
2021/06/04 09:19:05;;;;;;;6.32;5.55;;;20.00;49.00;;;;;;5094585;28;20152;-80
2021/06/04 09:21:33;;;;;;;6.32;5.53;;;19.90;49.10;;;;;;5094676;28;20164;-80
2021/06/04 09:24:01;;;;;;;5.63;4.93;;;19.90;48.90;;;;;;5077495;28;20157;-80
2021/06/04 09:26:28;;;;;;;6.28;5.65;;;19.90;48.90;;;;;;5094421;28;20149;-80
2021/06/04 09:29:13;;;;;;;5.68;4.93;;;19.90;49.00;;;;;;5094664;28;20160;-80
2021/06/04 09:31:48;;;;;;;6.13;5.13;;;19.90;49.10;;;;;;5094671;28;20184;-81
2021/06/04 09:34:26;;;;;;;6.03;5.28;;;19.80;49.10;;;;;;5094657;28;20152;-80
2021/06/04 09:37:03;;;;;;;5.82;5.22;;;19.90;49.10;;;;;;5094642;28;20184;-80
2021/06/04 09:39:47;;;;;;;6.32;5.63;;;19.90;49.00;;;;;;5093957;28;20214;-80
2021/06/04 09:42:16;;;;;;;5.95;5.10;;;19.90;49.10;;;;;;5095581;28;20149;-80
2021/06/04 09:45:01;;;;;;;5.40;4.78;;;19.90;49.10;;;;;;5111711;27;20164;-81
2021/06/04 09:47:37;;;;;;;7.07;5.53;;;19.90;49.10;;;;;;5112500;27;20198;-80
2021/06/04 09:50:22;;;;;;;5.53;4.95;;;19.90;49.10;;;;;;5094179;28;20223;-80
2021/06/04 09:53:02;;;;;;;5.97;5.38;;;19.90;49.10;;;;;;5112638;27;20638;-80
2021/06/04 09:55:30;;;;;;;6.32;5.30;;;19.90;49.10;;;;;;5094375;28;20196;-80
2021/06/04 09:58:17;;;;;;;5.80;5.18;;;19.90;49.10;;;;;;5095616;28;20168;-80
2021/06/04 10:01:06;;;;;;;7.00;5.65;;;19.90;49.70;;;;;;5095658;28;20165;-80
2021/06/04 10:03:49;;;;;;;5.95;5.35;;;20.00;49.10;;;;;;5095443;28;20149;-80
2021/06/04 10:06:34;;;;;;;5.68;5.07;;;19.90;49.10;;;;;;5095308;28;20168;-80
2021/06/04 10:09:09;;;;;;;5.88;5.25;;;20.00;49.20;;;;;;5095247;28;20252;-80
2021/06/04 10:11:56;;;;;;;6.53;5.50;;;19.90;49.20;;;;;;5095828;28;20264;-80
2021/06/04 10:14:32;;;;;;;5.50;5.00;;;19.90;49.30;;;;;;5114585;27;20191;-80
2021/06/04 10:19:48;;;;;;;6.28;5.28;;;19.90;49.20;;;;;;5094520;28;20153;-80
2021/06/04 10:22:35;;;;;;;5.35;4.63;;;20.00;49.10;;;;;;5093214;28;20176;-80
2021/06/04 10:25:20;;;;;;;6.07;5.38;;;20.00;49.10;;;;;;5095372;28;20176;-80
2021/06/04 10:27:50;;;;;;;5.85;5.15;;;20.00;49.20;;;;;;5095826;28;20548;-80
2021/06/04 10:30:21;;;;;;;6.05;5.45;;;20.00;49.00;;;;;;5093338;28;20219;-80
2021/06/04 10:33:04;;;;;;;5.68;5.10;;;20.00;49.20;;;;;;5093273;28;20185;-80
2021/06/04 10:35:39;;;;;;;6.25;5.63;;;19.90;49.30;;;;;;5061263;28;20722;-81
2021/06/04 10:38:19;;;;;;;6.03;5.43;;;19.90;49.30;;;;;;5093501;28;20177;-80
2021/06/04 10:40:52;;;;;;;6.13;5.43;;;19.90;49.30;;;;;;5075953;28;20200;-80
2021/06/04 10:43:48;;;;;;;6.40;5.50;;;19.90;49.30;;;;;;5076895;28;20198;-80
2021/06/04 10:46:20;;;;;;;5.72;5.13;;;19.90;49.30;;;;;;5046037;28;20184;-80
2021/06/04 10:49:14;;;;;;;6.63;5.15;;;19.90;49.30;;;;;;5093103;28;20565;-80
2021/06/04 10:52:06;;;;;;;6.22;5.60;;;19.90;49.20;;;;;;5071817;28;20237;-80
2021/06/04 10:54:47;;;;;;;6.55;5.13;;;19.90;49.30;;;;;;5073712;28;20574;-80
2021/06/04 10:57:17;;;;;;;5.15;4.65;;;19.90;49.40;;;;;;5073276;28;20222;-80
2021/06/04 10:59:51;;;;;;;5.90;5.20;;;19.90;49.30;;;;;;5073396;28;20161;-80
2021/06/04 11:02:23;;;;;;;6.72;5.15;;;19.90;49.20;;;;;;5073373;28;20150;-80
2021/06/04 11:05:23;;;;;;;5.47;4.80;;;20.00;49.30;;;;;;5074339;28;20157;-81
2021/06/04 11:08:00;;;;;;;7.82;5.30;;;20.00;49.30;;;;;;5074325;28;20242;-81
2021/06/04 11:10:41;;;;;;;5.60;4.90;;;20.00;49.20;;;;;;5073774;28;20559;-80
2021/06/04 11:13:23;;;;;;;5.72;4.90;;;20.00;49.40;;;;;;5075075;28;20206;-81
2021/06/04 11:16:24;;;;;;;6.20;5.35;;;20.00;49.40;;;;;;5074354;28;20149;-80
2021/06/04 11:18:52;;;;;;;6.40;5.00;;;20.00;49.30;;;;;;5074230;28;20199;-80
2021/06/04 11:21:29;;;;;;;5.70;5.10;;;20.00;49.40;;;;;;5074770;28;20169;-80
2021/06/04 11:24:06;;;;;;;6.68;5.63;;;20.00;49.30;;;;;;5072638;28;20172;-79
2021/06/04 11:26:38;;;;;;;6.20;5.18;;;20.00;49.40;;;;;;5073575;28;20158;-80
2021/06/04 11:29:16;;;;;;;6.15;5.55;;;20.00;49.60;;;;;;5072294;28;20157;-80
2021/06/04 11:32:02;;;;;;;8.10;5.60;;;20.00;49.60;;;;;;5072255;28;20185;-80
2021/06/04 11:34:52;;;;;;;6.28;5.35;;;19.90;49.70;;;;;;5072061;28;20157;-80
2021/06/04 11:37:33;;;;;;;5.80;4.82;;;19.80;49.90;;;;;;5073611;28;20157;-80
2021/06/04 11:40:08;;;;;;;6.13;5.40;;;19.80;49.90;;;;;;5090976;28;20162;-80
2021/06/04 11:42:47;;;;;;;5.63;5.03;;;19.90;49.80;;;;;;5073436;28;20184;-80
2021/06/04 11:45:12;;;;;;;5.22;4.72;;;20.00;49.70;;;;;;5073597;28;20161;-80
2021/06/04 11:47:38;;;;;;;5.88;4.95;;;20.00;49.60;;;;;;5073186;28;20530;-80
2021/06/04 11:50:09;;;;;;;7.50;5.43;;;20.10;49.50;;;;;;5084393;28;20698;-80
2021/06/04 11:52:44;;;;;;;6.43;5.00;;;20.10;49.40;;;;;;5093745;28;20171;-80
2021/06/04 11:55:34;;;;;;;5.63;5.05;;;20.10;49.40;;;;;;5092265;28;20186;-80
2021/06/04 11:58:34;;;;;;;6.13;5.20;;;20.10;49.30;;;;;;5092342;28;20160;-79
2021/06/04 12:01:33;;;;;;;6.43;5.10;;;20.10;49.30;;;;;;5092361;28;20160;-80
2021/06/04 12:04:09;;;;;;;6.25;5.53;;;20.10;49.30;;;;;;5092665;28;20160;-81
2021/06/04 12:06:58;;;;;;;6.00;5.28;;;20.10;49.40;;;;;;5092685;28;20325;-81
2021/06/04 12:09:41;;;;;;;6.53;5.18;;;20.10;49.30;;;;;;5092620;28;20591;-81
2021/06/04 12:12:36;;;;;;;6.72;5.20;;;20.00;49.50;;;;;;5092384;28;20161;-80
2021/06/04 12:15:25;;;;;;;6.43;5.07;;;20.00;49.60;;;;;;5091255;28;20177;-81
2021/06/04 12:17:52;;;;;;;5.90;5.03;;;19.90;49.70;;;;;;5092850;28;20619;-80
2021/06/04 12:20:39;;;;;;;5.93;5.05;;;20.00;49.70;;;;;;5093648;28;20165;-81
2021/06/04 12:23:08;;;;;;;5.65;5.07;;;19.90;49.70;;;;;;5095959;28;20595;-81
2021/06/04 12:25:57;;;;;;;6.07;5.47;;;19.90;49.80;;;;;;5094190;28;20216;-81
2021/06/04 12:28:42;;;;;;;5.63;4.82;;;19.90;49.70;;;;;;5092535;28;20157;-81
2021/06/04 12:31:11;;;;;;;5.30;4.60;;;19.90;49.90;;;;;;5092219;28;20227;-81
2021/06/04 12:33:51;;;;;;;6.07;5.03;;;19.90;49.80;;;;;;5109244;28;20164;-81
2021/06/04 12:36:49;;;;;;;5.93;5.07;;;19.90;49.80;;;;;;5057734;28;20516;-80
2021/06/04 12:39:43;;;;;;;5.45;4.88;;;19.90;49.90;;;;;;5073766;28;20184;-81
2021/06/04 12:42:32;;;;;;;5.45;4.85;;;20.00;49.90;;;;;;5092854;28;20161;-81
2021/06/04 12:45:34;;;;;;;5.75;4.90;;;20.10;49.60;;;;;;5091628;28;20164;-81
2021/06/04 12:48:24;;;;;;;5.55;4.90;;;20.20;49.40;;;;;;5060139;28;20719;-81
2021/06/04 12:51:17;;;;;;;5.18;4.68;;;20.10;49.30;;;;;;5042648;28;20224;-81
2021/06/04 12:53:47;;;;;;;7.07;5.22;;;20.10;49.30;;;;;;5076095;28;20173;-81
2021/06/04 12:56:23;;;;;;;6.72;5.30;;;20.10;49.50;;;;;;5074185;28;20185;-81
2021/06/04 12:58:50;;;;;;;6.03;5.43;;;20.10;49.40;;;;;;5057274;28;20236;-81
2021/06/04 13:01:26;;;;;;;5.00;4.50;;;20.10;49.40;;;;;;5074975;28;20177;-81
2021/06/04 13:04:00;;;;;;;5.35;4.57;;;20.20;49.40;;;;;;5110077;28;20180;-82
2021/06/04 13:06:35;;;;;;;5.78;4.90;;;20.10;49.20;;;;;;5092437;28;20149;-81
2021/06/04 13:09:01;;;;;;;5.30;4.80;;;20.10;49.20;;;;;;5093294;28;20216;-81
2021/06/04 13:11:44;;;;;;;5.72;5.13;;;20.20;49.10;;;;;;5108368;28;20207;-81
2021/06/04 13:14:27;;;;;;;5.30;4.80;;;20.30;49.10;;;;;;5092873;28;20259;-81
2021/06/04 13:16:54;;;;;;;5.15;4.65;;;20.30;49.10;;;;;;5096800;28;20210;-81
2021/06/04 13:19:25;;;;;;;6.03;4.70;;;20.20;49.10;;;;;;5095030;28;20165;-80
2021/06/04 13:21:52;;;;;;;6.13;4.80;;;20.20;49.10;;;;;;5095109;28;20157;-81